Time;durP1;ratioP1;P1;durP2;ratioP2;P2;SDS_P1;SDS_P2;PMS_P1;PMS_P2;Temp;Humidity;BMP_temperature;BMP_pressure;BME280_temperature;BME280_humidity;BME280_pressure;Samples;Min_cycle;Max_cycle;Signal;HPM_P1;HPM_P2
2023/09/20 00:01:08;;;;;;;;;;;18.20;99.90;;;;;;8373747;28;19991;-69
2023/09/20 00:05:15;;;;;;;;;;;18.20;99.90;;;;;;8377904;28;19925;-69
2023/09/20 00:09:17;;;;;;;;;;;18.10;99.90;;;;;;8383434;28;19929;-69
2023/09/20 00:13:19;;;;;;;;;;;18.10;99.90;;;;;;8375926;28;19939;-69
2023/09/20 00:17:20;;;;;;;;;;;18.10;99.90;;;;;;8377538;28;19986;-71
2023/09/20 00:21:23;;;;;;;;;;;18.20;99.90;;;;;;8374149;28;19932;-69
2023/09/20 00:25:27;;;;;;;;;;;18.20;99.90;;;;;;8373403;28;19928;-70
2023/09/20 00:29:28;;;;;;;;;;;18.10;99.90;;;;;;8382551;28;20395;-69
2023/09/20 00:33:30;;;;;;;;;;;18.10;99.90;;;;;;8381333;28;19928;-70
2023/09/20 00:37:32;;;;;;;;;;;18.00;99.90;;;;;;8374741;28;19924;-69
2023/09/20 00:41:33;;;;;;;;;;;18.00;99.90;;;;;;8380235;28;19931;-69
2023/09/20 00:45:40;;;;;;;;;;;18.00;99.90;;;;;;8370621;28;19928;-70
2023/09/20 00:49:45;;;;;;;;;;;17.90;99.90;;;;;;8377371;28;19924;-69
2023/09/20 00:53:48;;;;;;;;;;;17.80;99.90;;;;;;8370889;28;20342;-70
2023/09/20 00:57:51;;;;;;;;;;;17.80;99.90;;;;;;8378389;28;19924;-70
2023/09/20 01:01:53;;;;;;;;;;;17.80;99.90;;;;;;8379342;28;19932;-69
2023/09/20 01:05:55;;;;;;;;;;;17.70;99.90;;;;;;8374541;28;19928;-69
2023/09/20 01:09:57;;;;;;;;;;;17.80;99.90;;;;;;8366477;28;19925;-69
2023/09/20 01:13:59;;;;;;;;;;;17.70;99.90;;;;;;8375630;28;20514;-69
2023/09/20 01:18:02;;;;;;;;;;;17.70;99.90;;;;;;8368482;28;19924;-69
2023/09/20 01:22:04;;;;;;;;;;;17.70;99.90;;;;;;8373701;28;19936;-69
2023/09/20 01:26:06;;;;;;;;;;;17.60;99.90;;;;;;8377250;28;20286;-69
2023/09/20 01:30:08;;;;;;;;;;;17.60;99.90;;;;;;8378527;28;19929;-69
2023/09/20 01:34:09;;;;;;;;;;;17.60;99.90;;;;;;8375010;28;19931;-69
2023/09/20 01:38:11;;;;;;;;;;;17.60;99.90;;;;;;8371414;28;19928;-69
2023/09/20 01:42:15;;;;;;;;;;;17.60;99.90;;;;;;8371504;28;20402;-69
2023/09/20 01:46:17;;;;;;;;;;;17.50;99.90;;;;;;8374297;28;20403;-69
2023/09/20 01:50:25;;;;;;;;;;;17.50;99.90;;;;;;8370507;28;19925;-69
2023/09/20 01:54:30;;;;;;;;;;;17.50;99.90;;;;;;8366915;28;22389;-69
2023/09/20 01:58:31;;;;;;;;;;;17.40;99.90;;;;;;8373327;28;19926;-69
2023/09/20 02:02:34;;;;;;;;;;;17.40;99.90;;;;;;8373763;28;19925;-70
2023/09/20 02:06:35;;;;;;;;;;;17.40;99.90;;;;;;8372664;28;20019;-68
2023/09/20 02:10:38;;;;;;;;;;;17.40;99.90;;;;;;8369231;28;20015;-70
2023/09/20 02:14:41;;;;;;;;;;;17.40;99.90;;;;;;8379098;28;20430;-69
2023/09/20 02:18:44;;;;;;;;;;;17.50;99.90;;;;;;8376955;28;19951;-69
2023/09/20 02:22:50;;;;;;;;;;;17.50;99.90;;;;;;8369420;28;19951;-69
2023/09/20 02:26:52;;;;;;;;;;;17.50;99.90;;;;;;8381394;28;19970;-69
2023/09/20 02:30:54;;;;;;;;;;;17.60;99.90;;;;;;8372361;28;19931;-70
2023/09/20 02:34:56;;;;;;;;;;;17.50;99.90;;;;;;8374437;28;19931;-69
2023/09/20 02:38:59;;;;;;;;;;;17.50;99.90;;;;;;8371420;28;20411;-69
2023/09/20 02:43:03;;;;;;;;;;;17.50;99.90;;;;;;8366983;28;20325;-70
2023/09/20 02:47:05;;;;;;;;;;;17.50;99.90;;;;;;8368849;28;19932;-69
2023/09/20 02:51:06;;;;;;;;;;;17.50;99.90;;;;;;8366685;28;20380;-70
2023/09/20 02:55:11;;;;;;;;;;;17.40;99.90;;;;;;8370093;28;20285;-69
2023/09/20 02:59:13;;;;;;;;;;;17.40;99.90;;;;;;8371698;28;19925;-69
2023/09/20 03:03:16;;;;;;;;;;;17.40;99.90;;;;;;8375189;28;19931;-69
2023/09/20 03:07:18;;;;;;;;;;;17.30;99.90;;;;;;8379837;28;20383;-70
2023/09/20 03:11:25;;;;;;;;;;;17.30;99.90;;;;;;8385276;28;20007;-70
2023/09/20 03:15:28;;;;;;;;;;;17.30;99.90;;;;;;8382354;28;20005;-69
2023/09/20 03:19:31;;;;;;;;;;;17.30;99.90;;;;;;8379776;28;20332;-70
2023/09/20 03:23:33;;;;;;;;;;;17.30;99.90;;;;;;8375185;28;19924;-69
2023/09/20 03:27:40;;;;;;;;;;;17.30;99.90;;;;;;8382617;28;20465;-69
2023/09/20 03:31:43;;;;;;;;;;;17.30;99.90;;;;;;8370100;28;19929;-69
2023/09/20 03:35:44;;;;;;;;;;;17.40;99.90;;;;;;8370887;28;20004;-69
2023/09/20 03:39:46;;;;;;;;;;;17.40;99.90;;;;;;8375857;28;19974;-69
2023/09/20 03:43:48;;;;;;;;;;;17.30;99.90;;;;;;8382400;28;19924;-69
2023/09/20 03:47:53;;;;;;;;;;;17.40;99.90;;;;;;8376886;28;19924;-68
2023/09/20 03:51:55;;;;;;;;;;;17.40;99.90;;;;;;8375042;28;20333;-69
2023/09/20 03:55:57;;;;;;;;;;;17.40;99.90;;;;;;8370574;28;19924;-70
2023/09/20 03:59:58;;;;;;;;;;;17.40;99.90;;;;;;8369188;28;19925;-69
2023/09/20 04:04:00;;;;;;;;;;;17.40;99.90;;;;;;8368363;28;19970;-69
2023/09/20 04:08:04;;;;;;;;;;;17.40;99.90;;;;;;8380834;28;19925;-69
2023/09/20 04:12:05;;;;;;;;;;;17.50;99.90;;;;;;8367572;28;20339;-69
2023/09/20 04:16:07;;;;;;;;;;;17.50;99.90;;;;;;8373181;28;19981;-69
2023/09/20 04:20:09;;;;;;;;;;;17.40;99.90;;;;;;8368522;28;19935;-69
2023/09/20 04:55:49;;;;;;;;;;;17.30;99.90;;;;;;8374653;28;20806;-68
2023/09/20 04:59:51;;;;;;;;;;;17.30;99.90;;;;;;8370927;28;20271;-69
2023/09/20 05:03:53;;;;;;;;;;;17.30;99.90;;;;;;8379145;28;19924;-70
2023/09/20 05:07:54;;;;;;;;;;;17.30;99.90;;;;;;8357589;28;20347;-69
2023/09/20 05:11:56;;;;;;;;;;;17.30;99.90;;;;;;8374099;28;19935;-69
2023/09/20 05:15:58;;;;;;;;;;;17.30;99.90;;;;;;8377751;28;20319;-69
2023/09/20 05:20:00;;;;;;;;;;;17.30;99.90;;;;;;8370666;28;19978;-69
2023/09/20 05:24:04;;;;;;;;;;;17.30;99.90;;;;;;8378049;28;19925;-69
2023/09/20 05:28:06;;;;;;;;;;;17.20;99.90;;;;;;8373010;28;19931;-69
2023/09/20 05:32:08;;;;;;;;;;;17.20;99.90;;;;;;8381091;28;20327;-69
2023/09/20 05:36:09;;;;;;;;;;;17.20;99.90;;;;;;8375669;28;20026;-68
2023/09/20 05:40:17;;;;;;;;;;;17.20;99.90;;;;;;8372079;28;19932;-68
2023/09/20 05:44:19;;;;;;;;;;;17.10;99.90;;;;;;8375082;28;19936;-69
2023/09/20 05:48:20;;;;;;;;;;;17.10;99.90;;;;;;8361004;28;20358;-68
2023/09/20 05:52:22;;;;;;;;;;;17.10;99.90;;;;;;8379367;28;19983;-69
2023/09/20 05:56:24;;;;;;;;;;;17.10;99.90;;;;;;8379565;28;20426;-69
2023/09/20 06:00:26;;;;;;;;;;;17.20;99.90;;;;;;8371508;28;20012;-69
2023/09/20 06:04:29;;;;;;;;;;;17.20;99.90;;;;;;8368388;28;19933;-70
2023/09/20 06:08:30;;;;;;;;;;;17.20;99.90;;;;;;8367205;28;19924;-69
2023/09/20 06:12:32;;;;;;;;;;;17.20;99.90;;;;;;8373216;28;19987;-69
2023/09/20 06:16:34;;;;;;;;;;;17.20;99.90;;;;;;8375425;28;19924;-69
2023/09/20 06:20:36;;;;;;;;;;;17.20;99.90;;;;;;8374052;28;19935;-69
2023/09/20 06:24:43;;;;;;;;;;;17.20;99.90;;;;;;8378601;28;20301;-68
2023/09/20 06:28:45;;;;;;;;;;;17.30;99.90;;;;;;8377239;28;19931;-69
2023/09/20 06:32:47;;;;;;;;;;;17.30;99.90;;;;;;8363061;28;19929;-69
2023/09/20 06:36:48;;;;;;;;;;;17.30;99.90;;;;;;8368393;28;20256;-69
2023/09/20 06:40:53;;;;;;;;;;;17.30;99.90;;;;;;8368241;28;19932;-69
2023/09/20 06:44:55;;;;;;;;;;;17.30;99.90;;;;;;8378439;28;20410;-69
2023/09/20 06:48:57;;;;;;;;;;;17.30;99.90;;;;;;8349979;28;19925;-69
2023/09/20 06:52:59;;;;;;;;;;;17.40;99.90;;;;;;8359310;28;19951;-69
2023/09/20 06:57:02;;;;;;;;;;;17.40;99.90;;;;;;8374521;28;19928;-69
2023/09/20 07:01:05;;;;;;;;;;;17.40;99.90;;;;;;8372792;28;20375;-69
2023/09/20 07:05:07;;;;;;;;;;;17.40;99.90;;;;;;8370202;28;19924;-68
2023/09/20 07:09:09;;;;;;;;;;;17.40;99.90;;;;;;8374458;28;19952;-69
2023/09/20 07:13:11;;;;;;;;;;;17.40;99.90;;;;;;8368115;28;19924;-69
2023/09/20 07:17:14;;;;;;;;;;;17.40;99.90;;;;;;8368841;28;19952;-69
2023/09/20 07:21:16;;;;;;;;;;;17.40;99.90;;;;;;8362593;28;19925;-69
2023/09/20 07:25:19;;;;;;;;;;;17.40;99.90;;;;;;8370909;28;20379;-68
2023/09/20 07:29:23;;;;;;;;;;;17.40;99.90;;;;;;8370992;28;19933;-69
2023/09/20 07:33:24;;;;;;;;;;;17.50;99.90;;;;;;8365117;28;19924;-68
2023/09/20 07:37:27;;;;;;;;;;;17.50;99.90;;;;;;8369744;28;19929;-69
2023/09/20 07:41:28;;;;;;;;;;;17.50;99.90;;;;;;8362046;28;19975;-69
2023/09/20 07:45:38;;;;;;;;;;;17.50;99.90;;;;;;8362527;28;19970;-69
2023/09/20 07:49:40;;;;;;;;;;;17.50;99.90;;;;;;8373359;28;19929;-69
2023/09/20 07:53:41;;;;;;;;;;;17.50;99.90;;;;;;8376871;28;19924;-69
2023/09/20 07:57:43;;;;;;;;;;;17.60;99.90;;;;;;8378340;28;19963;-69
2023/09/20 08:01:45;;;;;;;;;;;17.60;99.90;;;;;;8377657;28;19924;-69
2023/09/20 08:05:47;;;;;;;;;;;17.70;99.90;;;;;;8375500;28;20306;-70
2023/09/20 08:09:51;;;;;;;;;;;17.70;99.90;;;;;;8379893;28;20295;-69
2023/09/20 08:13:54;;;;;;;;;;;17.70;99.90;;;;;;8376305;28;20001;-69
2023/09/20 09:02:13;;;;;;;;;;;18.20;99.90;;;;;;8369226;28;19933;-69
2023/09/20 09:06:15;;;;;;;;;;;18.20;99.90;;;;;;8374094;28;20028;-69
2023/09/20 09:10:17;;;;;;;;;;;18.20;99.90;;;;;;8374943;28;19929;-69
2023/09/20 09:14:18;;;;;;;;;;;18.20;99.90;;;;;;8374365;28;19938;-69
2023/09/20 09:18:21;;;;;;;;;;;18.20;99.90;;;;;;8372977;28;19924;-69
2023/09/20 09:22:23;;;;;;;;;;;18.20;99.90;;;;;;8372367;28;19982;-69
2023/09/20 09:26:25;;;;;;;;;;;18.20;99.90;;;;;;8378889;28;20375;-69
2023/09/20 09:30:27;;;;;;;;;;;18.20;99.90;;;;;;8375928;28;19928;-69
2023/09/20 09:34:29;;;;;;;;;;;18.20;99.90;;;;;;8372484;28;20698;-68
2023/09/20 09:38:33;;;;;;;;;;;18.20;99.90;;;;;;8357336;28;19924;-69
2023/09/20 09:42:35;;;;;;;;;;;18.20;99.90;;;;;;8374713;28;19925;-69
2023/09/20 09:46:41;;;;;;;;;;;18.20;99.90;;;;;;8371632;28;19929;-69
2023/09/20 09:50:45;;;;;;;;;;;18.20;99.90;;;;;;8377009;28;19967;-70
2023/09/20 09:54:48;;;;;;;;;;;18.20;99.90;;;;;;8372270;28;19941;-69
2023/09/20 09:58:49;;;;;;;;;;;18.40;99.90;;;;;;8371156;28;20360;-69
2023/09/20 10:02:52;;;;;;;;;;;18.50;99.90;;;;;;8370422;28;19928;-69
2023/09/20 10:07:01;;;;;;;;;;;18.70;99.90;;;;;;8374148;28;19990;-69
2023/09/20 10:11:05;;;;;;;;;;;18.80;99.90;;;;;;8375594;28;20315;-69
2023/09/20 10:15:07;;;;;;;;;;;18.90;99.90;;;;;;8367405;28;19980;-69
2023/09/20 10:19:12;;;;;;;;;;;18.90;99.90;;;;;;8368547;28;20394;-69
2023/09/20 10:23:15;;;;;;;;;;;19.00;99.90;;;;;;8372853;28;19924;-69
2023/09/20 10:27:17;;;;;;;;;;;19.00;99.90;;;;;;8368458;28;19931;-69
2023/09/20 10:31:20;;;;;;;;;;;19.00;99.90;;;;;;8372011;28;19925;-69
2023/09/20 10:35:30;;;;;;;;;;;19.00;99.90;;;;;;8365143;28;19924;-68
2023/09/20 10:39:32;;;;;;;;;;;19.00;99.90;;;;;;8364572;28;20351;-69
2023/09/20 10:58:42;;;;;;;;;;;19.20;99.90;;;;;;8376386;28;20382;-68
2023/09/20 11:02:46;;;;;;;;;;;19.30;99.90;;;;;;8365114;28;19925;-69
2023/09/20 11:06:48;;;;;;;;;;;19.30;99.90;;;;;;8350148;28;20019;-69
2023/09/20 11:10:50;;;;;;;;;;;19.40;99.90;;;;;;8372396;28;19928;-70
2023/09/20 11:14:54;;;;;;;;;;;19.40;99.90;;;;;;8354859;28;19993;-69
2023/09/20 11:18:56;;;;;;;;;;;19.50;99.90;;;;;;8374470;28;19994;-70
2023/09/20 11:22:58;;;;;;;;;;;19.70;99.90;;;;;;8375126;28;21443;-69
2023/09/20 11:27:00;;;;;;;;;;;19.80;99.90;;;;;;8382857;28;19943;-69
2023/09/20 11:31:02;;;;;;;;;;;19.90;99.90;;;;;;8382266;28;19978;-69
2023/09/20 11:35:06;;;;;;;;;;;19.90;99.90;;;;;;8346943;28;19932;-70
2023/09/20 11:39:08;;;;;;;;;;;19.90;99.90;;;;;;8366167;28;19924;-70
2023/09/20 11:43:12;;;;;;;;;;;19.90;99.90;;;;;;8350661;28;19925;-69
2023/09/20 11:47:13;;;;;;;;;;;20.00;99.90;;;;;;8344511;28;19981;-69
2023/09/20 11:51:15;;;;;;;;;;;20.20;99.90;;;;;;8344875;28;19947;-69
2023/09/20 11:55:19;;;;;;;;;;;20.40;99.90;;;;;;8345923;28;19967;-71
2023/09/20 11:59:22;;;;;;;;;;;20.60;99.90;;;;;;8344768;28;19931;-68
2023/09/20 12:03:24;;;;;;;;;;;20.70;99.90;;;;;;8346327;28;19990;-69
2023/09/20 12:07:26;;;;;;;;;;;20.70;99.90;;;;;;8343783;28;19924;-69
2023/09/20 12:11:29;;;;;;;;;;;20.80;99.90;;;;;;8337741;28;19936;-71
2023/09/20 12:15:32;;;;;;;;;;;20.90;99.90;;;;;;8345951;28;19931;-70
2023/09/20 12:19:34;;;;;;;;;;;20.90;99.90;;;;;;8338798;28;19931;-71
2023/09/20 12:23:38;;;;;;;;;;;20.90;99.90;;;;;;8346608;28;19948;-70
2023/09/20 12:27:40;;;;;;;;;;;20.90;99.90;;;;;;8344086;28;20404;-70
2023/09/20 12:31:42;;;;;;;;;;;20.90;99.90;;;;;;8349007;28;19925;-69
2023/09/20 12:35:43;;;;;;;;;;;20.90;99.90;;;;;;8366289;28;19924;-69
2023/09/20 12:39:46;;;;;;;;;;;21.00;99.90;;;;;;8374661;28;19947;-70
2023/09/20 12:43:49;;;;;;;;;;;21.10;99.90;;;;;;8374198;28;20280;-69
2023/09/20 12:47:51;;;;;;;;;;;21.10;99.90;;;;;;8379963;28;20407;-71
2023/09/20 12:51:53;;;;;;;;;;;21.20;99.90;;;;;;8362226;28;19947;-70
2023/09/20 12:55:54;;;;;;;;;;;21.10;99.90;;;;;;8375770;28;19954;-69
2023/09/20 12:59:57;;;;;;;;;;;21.10;99.90;;;;;;8374184;28;20018;-71
2023/09/20 13:03:59;;;;;;;;;;;21.20;99.90;;;;;;8376816;28;19978;-70
2023/09/20 13:08:01;;;;;;;;;;;21.30;99.90;;;;;;8375664;28;20542;-70
2023/09/20 13:12:02;;;;;;;;;;;21.40;99.90;;;;;;8381443;28;19971;-70
2023/09/20 13:16:06;;;;;;;;;;;21.50;99.90;;;;;;8373525;28;21648;-69
2023/09/20 13:20:07;;;;;;;;;;;21.60;99.90;;;;;;8375406;28;19924;-69
2023/09/20 13:24:09;;;;;;;;;;;21.70;99.90;;;;;;8376949;28;19928;-70
2023/09/20 13:28:12;;;;;;;;;;;21.70;99.90;;;;;;8376288;28;19932;-69
2023/09/20 13:32:14;;;;;;;;;;;21.70;99.90;;;;;;8376762;28;19964;-70
2023/09/20 13:36:16;;;;;;;;;;;21.60;99.90;;;;;;8375507;28;19970;-69
2023/09/20 13:40:18;;;;;;;;;;;21.50;99.90;;;;;;8369686;28;19932;-69
2023/09/20 13:44:20;;;;;;;;;;;21.50;99.90;;;;;;8372248;28;20335;-70
2023/09/20 13:48:23;;;;;;;;;;;21.40;99.90;;;;;;8370286;28;19936;-69
2023/09/20 13:52:25;;;;;;;;;;;21.40;99.90;;;;;;8372292;28;19981;-69
2023/09/20 13:56:28;;;;;;;;;;;21.50;99.90;;;;;;8371297;28;19934;-70
2023/09/20 14:00:29;;;;;;;;;;;21.50;99.90;;;;;;8372854;28;20375;-70
2023/09/20 14:04:31;;;;;;;;;;;21.50;99.90;;;;;;8372744;28;19924;-69
2023/09/20 14:08:33;;;;;;;;;;;21.40;99.90;;;;;;8379072;28;20294;-70
2023/09/20 14:12:37;;;;;;;;;;;21.30;99.90;;;;;;8375217;28;20357;-70
2023/09/20 14:16:38;;;;;;;;;;;21.30;99.90;;;;;;8372825;28;20338;-70
2023/09/20 14:20:42;;;;;;;;;;;21.30;99.90;;;;;;8374579;28;19928;-69
2023/09/20 14:24:44;;;;;;;;;;;21.30;99.90;;;;;;8376719;28;20406;-70
2023/09/20 14:28:46;;;;;;;;;;;21.20;99.90;;;;;;8378273;28;19925;-69
2023/09/20 14:32:49;;;;;;;;;;;21.10;99.90;;;;;;8372968;28;19929;-70
2023/09/20 14:36:51;;;;;;;;;;;21.10;99.90;;;;;;8365984;28;19925;-69
2023/09/20 14:40:54;;;;;;;;;;;21.00;99.90;;;;;;8375950;28;19925;-69
2023/09/20 14:44:56;;;;;;;;;;;21.00;99.90;;;;;;8371116;28;19928;-69
2023/09/20 14:48:58;;;;;;;;;;;21.10;99.90;;;;;;8363335;28;20390;-69
2023/09/20 14:53:00;;;;;;;;;;;21.00;99.90;;;;;;8365093;28;19928;-69
2023/09/20 14:57:02;;;;;;;;;;;21.00;99.90;;;;;;8377157;28;19974;-69
2023/09/20 15:01:16;;;;;;;;;;;20.90;99.90;;;;;;8364756;28;19970;-68
2023/09/20 15:05:19;;;;;;;;;;;20.90;99.90;;;;;;8352281;28;19975;-70
2023/09/20 15:09:21;;;;;;;;;;;20.90;99.90;;;;;;8357174;28;19924;-69
2023/09/20 15:13:22;;;;;;;;;;;20.90;99.90;;;;;;8375331;28;19928;-69
2023/09/20 15:17:25;;;;;;;;;;;20.90;99.90;;;;;;8371814;28;19948;-69
2023/09/20 15:21:27;;;;;;;;;;;20.80;99.90;;;;;;8374364;28;20031;-69
2023/09/20 15:25:29;;;;;;;;;;;20.80;99.90;;;;;;8356588;28;19928;-69
2023/09/20 15:29:31;;;;;;;;;;;20.80;99.90;;;;;;8376826;28;20349;-69
2023/09/20 15:33:33;;;;;;;;;;;20.70;99.90;;;;;;8377176;28;19929;-69
2023/09/20 15:37:43;;;;;;;;;;;20.80;99.90;;;;;;8375362;28;20016;-69
2023/09/20 15:41:45;;;;;;;;;;;20.70;99.90;;;;;;8379689;28;19936;-70
2023/09/20 15:45:48;;;;;;;;;;;20.80;99.90;;;;;;8375180;28;20022;-69
2023/09/20 15:49:49;;;;;;;;;;;20.80;99.90;;;;;;8375324;28;19932;-69
2023/09/20 15:53:55;;;;;;;;;;;20.80;99.90;;;;;;8374642;28;19933;-69
2023/09/20 15:57:57;;;;;;;;;;;20.80;99.90;;;;;;8376410;28;19924;-69
2023/09/20 16:01:59;;;;;;;;;;;20.80;99.90;;;;;;8377441;28;19928;-70
2023/09/20 16:06:01;;;;;;;;;;;20.80;99.90;;;;;;8377668;28;19924;-70
2023/09/20 16:10:02;;;;;;;;;;;20.80;99.90;;;;;;8374596;28;20373;-70
2023/09/20 16:14:07;;;;;;;;;;;20.90;99.90;;;;;;8377120;28;19931;-70
2023/09/20 16:18:09;;;;;;;;;;;20.90;99.90;;;;;;8359590;28;20463;-70
2023/09/20 16:22:11;;;;;;;;;;;21.00;99.90;;;;;;8377397;28;19936;-69
2023/09/20 16:26:12;;;;;;;;;;;21.00;99.90;;;;;;8378427;28;19924;-70
2023/09/20 16:30:14;;;;;;;;;;;21.10;99.90;;;;;;8379497;28;19929;-70
2023/09/20 16:34:16;;;;;;;;;;;21.10;99.90;;;;;;8378503;28;20331;-70
2023/09/20 16:38:19;;;;;;;;;;;21.10;99.90;;;;;;8373452;28;19932;-69
2023/09/20 16:42:21;;;;;;;;;;;21.00;99.90;;;;;;8376881;28;20042;-69
2023/09/20 16:46:23;;;;;;;;;;;21.00;99.90;;;;;;8375525;28;19924;-69
2023/09/20 16:50:25;;;;;;;;;;;21.00;99.90;;;;;;8376573;28;19971;-70
2023/09/20 16:54:26;;;;;;;;;;;21.00;99.90;;;;;;8379258;28;19971;-70
2023/09/20 16:58:28;;;;;;;;;;;20.90;99.90;;;;;;8372457;28;19932;-70
2023/09/20 17:02:30;;;;;;;;;;;20.90;99.90;;;;;;8379032;28;20023;-70
2023/09/20 17:06:32;;;;;;;;;;;20.90;99.90;;;;;;8377075;28;19935;-69
2023/09/20 17:10:34;;;;;;;;;;;20.90;99.90;;;;;;8369395;28;19946;-70
2023/09/20 17:14:36;;;;;;;;;;;20.90;99.90;;;;;;8369640;28;19925;-69
2023/09/20 17:18:38;;;;;;;;;;;20.90;99.90;;;;;;8375599;28;19970;-69
2023/09/20 17:22:41;;;;;;;;;;;20.90;99.90;;;;;;8359382;28;19925;-70
2023/09/20 17:26:45;;;;;;;;;;;20.90;99.90;;;;;;8373581;28;20338;-70
2023/09/20 17:30:47;;;;;;;;;;;20.80;99.90;;;;;;8380753;28;19928;-69
2023/09/20 17:34:48;;;;;;;;;;;20.80;99.90;;;;;;8360005;28;20348;-69
2023/09/20 17:38:50;;;;;;;;;;;20.80;99.90;;;;;;8368005;28;19959;-70
2023/09/20 17:42:53;;;;;;;;;;;20.80;99.90;;;;;;8374234;28;19924;-69
2023/09/20 17:46:54;;;;;;;;;;;20.80;99.90;;;;;;8376893;28;19929;-70
2023/09/20 17:51:00;;;;;;;;;;;20.70;99.90;;;;;;8375884;28;19932;-70
2023/09/20 17:55:02;;;;;;;;;;;20.70;99.90;;;;;;8380191;28;19990;-70
2023/09/20 17:59:04;;;;;;;;;;;20.60;99.90;;;;;;8377545;28;19928;-70
2023/09/20 18:03:06;;;;;;;;;;;20.60;99.90;;;;;;8370200;28;19925;-70
2023/09/20 18:07:08;;;;;;;;;;;20.60;99.90;;;;;;8372166;28;19929;-70
2023/09/20 18:11:11;;;;;;;;;;;20.50;99.90;;;;;;8370451;28;19932;-70
2023/09/20 18:15:13;;;;;;;;;;;20.50;99.90;;;;;;8367649;28;19931;-70
2023/09/20 18:19:16;;;;;;;;;;;20.50;99.90;;;;;;8373939;28;19924;-70
2023/09/20 18:23:17;;;;;;;;;;;20.40;99.90;;;;;;8362479;28;19975;-70
2023/09/20 18:27:23;;;;;;;;;;;20.40;99.90;;;;;;8372932;28;19951;-70
2023/09/20 18:31:31;;;;;;;;;;;20.40;99.90;;;;;;8364919;28;19928;-70
2023/09/20 18:35:36;;;;;;;;;;;20.30;99.90;;;;;;8372665;28;19929;-69
2023/09/20 18:39:39;;;;;;;;;;;20.30;99.90;;;;;;8379359;28;19929;-70
2023/09/20 18:43:41;;;;;;;;;;;20.20;99.90;;;;;;8355806;28;19924;-70
2023/09/20 18:47:44;;;;;;;;;;;20.20;99.90;;;;;;8368452;28;19925;-70
2023/09/20 18:51:46;;;;;;;;;;;20.10;99.90;;;;;;8372819;28;19936;-70
2023/09/20 18:55:50;;;;;;;;;;;20.10;99.90;;;;;;8371567;28;20276;-70
2023/09/20 18:59:52;;;;;;;;;;;20.10;99.90;;;;;;8367737;28;19976;-70
2023/09/20 19:03:55;;;;;;;;;;;20.10;99.90;;;;;;8367892;28;19968;-70
2023/09/20 19:07:57;;;;;;;;;;;20.10;99.90;;;;;;8371657;28;20015;-70
2023/09/20 19:12:00;;;;;;;;;;;20.00;99.90;;;;;;8372052;28;19932;-70
2023/09/20 19:16:02;;;;;;;;;;;20.00;99.90;;;;;;8343813;28;19929;-70
2023/09/20 19:20:17;;;;;;;;;;;20.00;99.90;;;;;;8375784;28;19955;-70
2023/09/20 19:24:23;;;;;;;;;;;20.00;99.90;;;;;;8381255;28;19931;-70
2023/09/20 19:28:27;;;;;;;;;;;19.90;99.90;;;;;;8362895;28;19924;-70
2023/09/20 19:32:29;;;;;;;;;;;19.90;99.90;;;;;;8372693;28;20023;-70
2023/09/20 19:36:32;;;;;;;;;;;19.90;99.90;;;;;;8371063;28;19924;-70
2023/09/20 19:40:34;;;;;;;;;;;19.80;99.90;;;;;;8378157;28;19924;-70
2023/09/20 19:44:37;;;;;;;;;;;19.80;99.90;;;;;;8380103;28;20569;-70
2023/09/20 19:48:39;;;;;;;;;;;19.80;99.90;;;;;;8380981;28;19985;-70
2023/09/20 19:52:48;;;;;;;;;;;19.80;99.90;;;;;;8383988;28;19948;-69
2023/09/20 19:56:50;;;;;;;;;;;19.80;99.90;;;;;;8376951;28;19933;-70
2023/09/20 20:00:53;;;;;;;;;;;19.70;99.90;;;;;;8385831;28;19924;-69
2023/09/20 20:04:54;;;;;;;;;;;19.70;99.90;;;;;;8374849;28;19928;-69
2023/09/20 20:08:56;;;;;;;;;;;19.70;99.90;;;;;;8367686;28;19925;-69
2023/09/20 20:12:59;;;;;;;;;;;19.70;99.90;;;;;;8379315;28;19931;-70
2023/09/20 20:17:09;;;;;;;;;;;19.60;99.90;;;;;;8374269;28;19968;-70
2023/09/20 20:21:12;;;;;;;;;;;19.60;99.90;;;;;;8383179;28;19932;-70
2023/09/20 20:25:19;;;;;;;;;;;19.60;99.90;;;;;;8377863;28;19925;-70
2023/09/20 20:29:21;;;;;;;;;;;19.60;99.90;;;;;;8379220;28;20368;-70
2023/09/20 20:33:23;;;;;;;;;;;19.60;99.90;;;;;;8377180;28;19929;-69
2023/09/20 20:37:26;;;;;;;;;;;19.60;99.90;;;;;;8372468;28;19929;-70
2023/09/20 20:41:28;;;;;;;;;;;19.60;99.90;;;;;;8372860;28;19925;-70
2023/09/20 20:45:30;;;;;;;;;;;19.60;99.90;;;;;;8374298;28;19928;-70
2023/09/20 20:49:32;;;;;;;;;;;19.60;99.90;;;;;;8371158;28;20342;-69
2023/09/20 20:53:34;;;;;;;;;;;19.60;99.90;;;;;;8379278;28;19924;-70
2023/09/20 20:57:35;;;;;;;;;;;19.60;99.90;;;;;;8378006;28;20283;-70
2023/09/20 21:01:37;;;;;;;;;;;19.60;99.90;;;;;;8382532;28;20321;-70
2023/09/20 21:05:43;;;;;;;;;;;19.60;99.90;;;;;;8383874;28;19939;-69
2023/09/20 21:09:45;;;;;;;;;;;19.60;99.90;;;;;;8377477;28;19931;-69
2023/09/20 21:13:47;;;;;;;;;;;19.60;99.90;;;;;;8376029;28;19935;-70
2023/09/20 21:17:49;;;;;;;;;;;19.60;99.90;;;;;;8371491;28;20310;-70
2023/09/20 21:21:51;;;;;;;;;;;19.60;99.90;;;;;;8376457;28;19928;-70
2023/09/20 21:25:55;;;;;;;;;;;19.60;99.90;;;;;;8372215;28;19932;-69
2023/09/20 21:29:59;;;;;;;;;;;19.60;99.90;;;;;;8375714;28;19929;-70
2023/09/20 21:34:01;;;;;;;;;;;19.60;99.90;;;;;;8366758;28;19982;-69
2023/09/20 21:38:07;;;;;;;;;;;19.60;99.90;;;;;;8371725;28;19970;-70
2023/09/20 21:42:08;;;;;;;;;;;19.60;99.90;;;;;;8372942;28;19979;-70
2023/09/20 21:46:10;;;;;;;;;;;19.60;99.90;;;;;;8369696;28;19995;-70
2023/09/20 21:50:13;;;;;;;;;;;19.60;99.90;;;;;;8368930;28;19929;-70
2023/09/20 21:54:15;;;;;;;;;;;19.60;99.90;;;;;;8376932;28;19935;-69
2023/09/20 21:58:18;;;;;;;;;;;19.60;99.90;;;;;;8377028;28;19978;-70
2023/09/20 22:02:19;;;;;;;;;;;19.60;99.90;;;;;;8374783;28;20272;-69
2023/09/20 22:06:22;;;;;;;;;;;19.50;99.90;;;;;;8368926;28;19942;-70
2023/09/20 22:10:32;;;;;;;;;;;19.50;99.90;;;;;;8382293;28;20338;-69
2023/09/20 22:14:34;;;;;;;;;;;19.50;99.90;;;;;;8380419;28;19928;-70
2023/09/20 22:18:38;;;;;;;;;;;19.50;99.90;;;;;;8366202;28;19925;-70
2023/09/20 22:22:40;;;;;;;;;;;19.50;99.90;;;;;;8374815;28;19924;-70
2023/09/20 22:26:42;;;;;;;;;;;19.50;99.90;;;;;;8372087;28;19925;-69
2023/09/20 22:30:43;;;;;;;;;;;19.50;99.90;;;;;;8351519;28;20018;-69
2023/09/20 22:34:45;;;;;;;;;;;19.50;99.90;;;;;;8362705;28;20347;-69
2023/09/20 22:38:49;;;;;;;;;;;19.50;99.90;;;;;;8354126;28;19944;-70
2023/09/20 22:42:51;;;;;;;;;;;19.50;99.90;;;;;;8384153;28;19928;-69
2023/09/20 22:46:53;;;;;;;;;;;19.50;99.90;;;;;;8367562;28;19946;-69
2023/09/20 22:50:55;;;;;;;;;;;19.50;99.90;;;;;;8367302;28;19925;-70
2023/09/20 22:55:00;;;;;;;;;;;19.50;99.90;;;;;;8369056;28;19970;-70
2023/09/20 22:59:02;;;;;;;;;;;19.60;99.90;;;;;;8364860;28;20044;-70
2023/09/20 23:03:06;;;;;;;;;;;19.60;99.90;;;;;;8370847;28;19924;-70
2023/09/20 23:07:10;;;;;;;;;;;19.60;99.90;;;;;;8356669;28;20014;-69
2023/09/20 23:11:14;;;;;;;;;;;19.60;99.90;;;;;;8373071;28;19932;-70
2023/09/20 23:15:16;;;;;;;;;;;19.60;99.90;;;;;;8373776;28;20364;-70
2023/09/20 23:19:18;;;;;;;;;;;19.60;99.90;;;;;;8377484;28;20295;-69
2023/09/20 23:23:21;;;;;;;;;;;19.60;99.90;;;;;;8383021;28;19928;-69
2023/09/20 23:27:24;;;;;;;;;;;19.60;99.90;;;;;;8370842;28;19925;-69
2023/09/20 23:31:28;;;;;;;;;;;19.60;99.90;;;;;;8382966;28;19931;-69
2023/09/20 23:35:29;;;;;;;;;;;19.70;99.90;;;;;;8368376;28;19974;-70
2023/09/20 23:39:31;;;;;;;;;;;19.60;99.90;;;;;;8369962;28;19935;-69
2023/09/20 23:43:34;;;;;;;;;;;19.70;99.90;;;;;;8383806;28;19959;-70
2023/09/20 23:47:36;;;;;;;;;;;19.70;99.90;;;;;;8380117;28;19972;-71
2023/09/20 23:51:38;;;;;;;;;;;19.70;99.90;;;;;;8380152;28;20398;-69
2023/09/20 23:55:42;;;;;;;;;;;19.70;99.90;;;;;;8380963;28;19931;-70
2023/09/20 23:59:47;;;;;;;;;;;19.70;99.90;;;;;;8375095;28;19925;-70
